sensor_id;sensor_type;location;lat;lon;timestamp;P1;durP1;ratioP1;P2;durP2;ratioP2
4001;SDS011;2015;48.670;9.060;2023-06-05T00:01:39;3.60;;;3.30;;
4001;SDS011;2015;48.670;9.060;2023-06-05T00:04:10;4.60;;;4.20;;
4001;SDS011;2015;48.670;9.060;2023-06-05T00:06:43;5.93;;;4.20;;
4001;SDS011;2015;48.670;9.060;2023-06-05T00:09:15;3.67;;;3.37;;
4001;SDS011;2015;48.670;9.060;2023-06-05T00:11:47;3.90;;;3.60;;
4001;SDS011;2015;48.670;9.060;2023-06-05T00:14:19;4.47;;;4.17;;
4001;SDS011;2015;48.670;9.060;2023-06-05T00:16:50;3.67;;;3.47;;
4001;SDS011;2015;48.670;9.060;2023-06-05T00:19:23;4.23;;;3.83;;
4001;SDS011;2015;48.670;9.060;2023-06-05T00:21:54;3.40;;;3.20;;
4001;SDS011;2015;48.670;9.060;2023-06-05T00:24:26;4.30;;;4.00;;
4001;SDS011;2015;48.670;9.060;2023-06-05T00:26:58;5.33;;;3.90;;
4001;SDS011;2015;48.670;9.060;2023-06-05T00:29:30;4.83;;;4.43;;
4001;SDS011;2015;48.670;9.060;2023-06-05T00:32:02;3.80;;;3.60;;
4001;SDS011;2015;48.670;9.060;2023-06-05T00:34:34;4.10;;;3.80;;
4001;SDS011;2015;48.670;9.060;2023-06-05T00:37:06;4.40;;;4.07;;
4001;SDS011;2015;48.670;9.060;2023-06-05T00:39:38;3.80;;;3.50;;
4001;SDS011;2015;48.670;9.060;2023-06-05T00:42:10;3.83;;;3.63;;
4001;SDS011;2015;48.670;9.060;2023-06-05T00:44:42;3.77;;;3.57;;
4001;SDS011;2015;48.670;9.060;2023-06-05T00:47:14;3.70;;;3.50;;
4001;SDS011;2015;48.670;9.060;2023-06-05T00:49:46;4.67;;;4.37;;
4001;SDS011;2015;48.670;9.060;2023-06-05T00:52:19;6.20;;;4.17;;
4001;SDS011;2015;48.670;9.060;2023-06-05T00:54:52;4.10;;;3.77;;
4001;SDS011;2015;48.670;9.060;2023-06-05T00:57:24;3.87;;;3.50;;
4001;SDS011;2015;48.670;9.060;2023-06-05T00:59:58;4.30;;;3.90;;
4001;SDS011;2015;48.670;9.060;2023-06-05T01:02:30;4.03;;;3.60;;
4001;SDS011;2015;48.670;9.060;2023-06-05T01:05:02;4.73;;;4.17;;
4001;SDS011;2015;48.670;9.060;2023-06-05T01:07:35;4.60;;;4.10;;
4001;SDS011;2015;48.670;9.060;2023-06-05T01:10:09;4.23;;;4.00;;
4001;SDS011;2015;48.670;9.060;2023-06-05T01:12:43;3.80;;;3.50;;
4001;SDS011;2015;48.670;9.060;2023-06-05T01:15:24;4.87;;;4.00;;
4001;SDS011;2015;48.670;9.060;2023-06-05T01:17:59;3.80;;;3.50;;
4001;SDS011;2015;48.670;9.060;2023-06-05T01:20:35;4.10;;;3.80;;
4001;SDS011;2015;48.670;9.060;2023-06-05T01:23:08;5.53;;;4.00;;
4001;SDS011;2015;48.670;9.060;2023-06-05T01:25:40;4.17;;;3.87;;
4001;SDS011;2015;48.670;9.060;2023-06-05T01:28:17;4.15;;;3.75;;
4001;SDS011;2015;48.670;9.060;2023-06-05T01:30:58;4.20;;;4.00;;
4001;SDS011;2015;48.670;9.060;2023-06-05T01:33:43;4.90;;;4.50;;
4001;SDS011;2015;48.670;9.060;2023-06-05T01:36:21;5.90;;;4.47;;
4001;SDS011;2015;48.670;9.060;2023-06-05T01:38:53;5.20;;;4.87;;
4001;SDS011;2015;48.670;9.060;2023-06-05T01:41:27;4.40;;;4.07;;
4001;SDS011;2015;48.670;9.060;2023-06-05T01:44:00;4.80;;;4.17;;
4001;SDS011;2015;48.670;9.060;2023-06-05T01:46:33;5.10;;;4.63;;
4001;SDS011;2015;48.670;9.060;2023-06-05T01:49:05;3.80;;;3.53;;
4001;SDS011;2015;48.670;9.060;2023-06-05T01:51:37;4.30;;;4.00;;
4001;SDS011;2015;48.670;9.060;2023-06-05T01:54:09;3.97;;;3.67;;
4001;SDS011;2015;48.670;9.060;2023-06-05T01:56:41;4.40;;;4.10;;
4001;SDS011;2015;48.670;9.060;2023-06-05T01:59:14;4.00;;;3.70;;
4001;SDS011;2015;48.670;9.060;2023-06-05T02:01:47;4.47;;;4.17;;
4001;SDS011;2015;48.670;9.060;2023-06-05T02:04:20;4.47;;;4.17;;
4001;SDS011;2015;48.670;9.060;2023-06-05T02:06:53;4.77;;;3.73;;
4001;SDS011;2015;48.670;9.060;2023-06-05T02:09:25;7.40;;;4.53;;
4001;SDS011;2015;48.670;9.060;2023-06-05T02:11:57;4.57;;;4.23;;
4001;SDS011;2015;48.670;9.060;2023-06-05T02:14:30;3.10;;;2.90;;
4001;SDS011;2015;48.670;9.060;2023-06-05T02:17:03;5.97;;;4.03;;
4001;SDS011;2015;48.670;9.060;2023-06-05T02:19:39;4.57;;;3.90;;
4001;SDS011;2015;48.670;9.060;2023-06-05T02:22:11;4.53;;;4.33;;
4001;SDS011;2015;48.670;9.060;2023-06-05T02:24:43;3.97;;;3.77;;
4001;SDS011;2015;48.670;9.060;2023-06-05T02:27:16;5.40;;;3.77;;
4001;SDS011;2015;48.670;9.060;2023-06-05T02:29:47;4.37;;;4.07;;
4001;SDS011;2015;48.670;9.060;2023-06-05T02:32:19;3.92;;;3.53;;
4001;SDS011;2015;48.670;9.060;2023-06-05T02:34:54;4.43;;;4.13;;
4001;SDS011;2015;48.670;9.060;2023-06-05T02:37:28;5.40;;;4.50;;
4001;SDS011;2015;48.670;9.060;2023-06-05T02:40:00;6.47;;;4.20;;
4001;SDS011;2015;48.670;9.060;2023-06-05T02:42:31;4.73;;;4.40;;
4001;SDS011;2015;48.670;9.060;2023-06-05T02:45:03;4.53;;;4.23;;
4001;SDS011;2015;48.670;9.060;2023-06-05T02:47:35;5.10;;;4.53;;
4001;SDS011;2015;48.670;9.060;2023-06-05T02:50:08;4.30;;;4.00;;
4001;SDS011;2015;48.670;9.060;2023-06-05T02:52:40;4.20;;;4.00;;
4001;SDS011;2015;48.670;9.060;2023-06-05T02:55:12;4.70;;;4.33;;
4001;SDS011;2015;48.670;9.060;2023-06-05T02:57:44;4.40;;;4.10;;
4001;SDS011;2015;48.670;9.060;2023-06-05T03:00:15;4.33;;;4.03;;
4001;SDS011;2015;48.670;9.060;2023-06-05T03:02:48;5.60;;;3.80;;
4001;SDS011;2015;48.670;9.060;2023-06-05T03:05:21;4.67;;;4.37;;
4001;SDS011;2015;48.670;9.060;2023-06-05T03:07:57;4.80;;;4.50;;
4001;SDS011;2015;48.670;9.060;2023-06-05T03:10:28;4.50;;;4.20;;
4001;SDS011;2015;48.670;9.060;2023-06-05T03:13:00;6.30;;;4.40;;
4001;SDS011;2015;48.670;9.060;2023-06-05T03:15:32;4.60;;;4.30;;
4001;SDS011;2015;48.670;9.060;2023-06-05T03:18:05;4.40;;;4.00;;
4001;SDS011;2015;48.670;9.060;2023-06-05T03:20:37;3.92;;;3.50;;
4001;SDS011;2015;48.670;9.060;2023-06-05T03:23:09;6.00;;;4.73;;
4001;SDS011;2015;48.670;9.060;2023-06-05T03:25:41;4.20;;;3.90;;
4001;SDS011;2015;48.670;9.060;2023-06-05T03:28:13;4.40;;;4.00;;
4001;SDS011;2015;48.670;9.060;2023-06-05T03:30:45;4.80;;;4.50;;
4001;SDS011;2015;48.670;9.060;2023-06-05T03:33:18;5.60;;;5.03;;
4001;SDS011;2015;48.670;9.060;2023-06-05T03:35:50;4.60;;;4.00;;
4001;SDS011;2015;48.670;9.060;2023-06-05T03:38:23;4.80;;;4.40;;
4001;SDS011;2015;48.670;9.060;2023-06-05T03:40:55;3.57;;;3.33;;
4001;SDS011;2015;48.670;9.060;2023-06-05T03:43:27;4.67;;;4.30;;
4001;SDS011;2015;48.670;9.060;2023-06-05T03:45:59;8.83;;;3.87;;
4001;SDS011;2015;48.670;9.060;2023-06-05T03:48:31;3.97;;;3.77;;
4001;SDS011;2015;48.670;9.060;2023-06-05T03:51:02;4.67;;;4.27;;
4001;SDS011;2015;48.670;9.060;2023-06-05T03:53:38;4.37;;;3.90;;
4001;SDS011;2015;48.670;9.060;2023-06-05T03:56:14;4.83;;;4.43;;
4001;SDS011;2015;48.670;9.060;2023-06-05T03:58:47;4.60;;;4.30;;
4001;SDS011;2015;48.670;9.060;2023-06-05T04:01:19;4.97;;;4.57;;
4001;SDS011;2015;48.670;9.060;2023-06-05T04:03:51;4.17;;;3.87;;
4001;SDS011;2015;48.670;9.060;2023-06-05T04:06:23;4.77;;;4.37;;
4001;SDS011;2015;48.670;9.060;2023-06-05T04:08:55;6.10;;;5.60;;
4001;SDS011;2015;48.670;9.060;2023-06-05T04:11:27;5.23;;;4.70;;
4001;SDS011;2015;48.670;9.060;2023-06-05T04:13:59;4.33;;;3.93;;
4001;SDS011;2015;48.670;9.060;2023-06-05T04:16:31;5.13;;;4.73;;
4001;SDS011;2015;48.670;9.060;2023-06-05T04:19:05;4.73;;;4.40;;
4001;SDS011;2015;48.670;9.060;2023-06-05T04:21:38;4.40;;;4.00;;
4001;SDS011;2015;48.670;9.060;2023-06-05T04:24:10;6.72;;;4.38;;
4001;SDS011;2015;48.670;9.060;2023-06-05T04:26:42;5.30;;;4.90;;
4001;SDS011;2015;48.670;9.060;2023-06-05T04:29:14;4.87;;;4.47;;
4001;SDS011;2015;48.670;9.060;2023-06-05T04:31:48;5.87;;;5.37;;
4001;SDS011;2015;48.670;9.060;2023-06-05T04:34:20;6.83;;;6.37;;
4001;SDS011;2015;48.670;9.060;2023-06-05T04:36:51;5.73;;;5.07;;
4001;SDS011;2015;48.670;9.060;2023-06-05T04:39:23;5.10;;;4.80;;
4001;SDS011;2015;48.670;9.060;2023-06-05T04:41:55;4.47;;;4.17;;
4001;SDS011;2015;48.670;9.060;2023-06-05T04:44:47;4.70;;;4.30;;
4001;SDS011;2015;48.670;9.060;2023-06-05T04:47:29;4.20;;;3.90;;
4001;SDS011;2015;48.670;9.060;2023-06-05T04:50:02;4.40;;;4.10;;
4001;SDS011;2015;48.670;9.060;2023-06-05T04:52:35;4.90;;;3.77;;
4001;SDS011;2015;48.670;9.060;2023-06-05T04:55:07;4.07;;;3.73;;
4001;SDS011;2015;48.670;9.060;2023-06-05T04:57:39;4.10;;;3.80;;
4001;SDS011;2015;48.670;9.060;2023-06-05T05:00:12;3.87;;;3.63;;
4001;SDS011;2015;48.670;9.060;2023-06-05T05:02:44;4.47;;;4.07;;
4001;SDS011;2015;48.670;9.060;2023-06-05T05:05:16;7.50;;;4.73;;
4001;SDS011;2015;48.670;9.060;2023-06-05T05:07:49;4.67;;;4.10;;
4001;SDS011;2015;48.670;9.060;2023-06-05T05:10:21;5.00;;;4.03;;
4001;SDS011;2015;48.670;9.060;2023-06-05T05:12:53;3.87;;;3.67;;
4001;SDS011;2015;48.670;9.060;2023-06-05T05:15:24;3.90;;;3.70;;
4001;SDS011;2015;48.670;9.060;2023-06-05T05:17:58;4.00;;;3.70;;
4001;SDS011;2015;48.670;9.060;2023-06-05T05:20:29;4.83;;;4.33;;
4001;SDS011;2015;48.670;9.060;2023-06-05T05:23:03;5.77;;;5.37;;
4001;SDS011;2015;48.670;9.060;2023-06-05T05:25:37;4.30;;;4.00;;
4001;SDS011;2015;48.670;9.060;2023-06-05T05:28:09;4.57;;;4.23;;
4001;SDS011;2015;48.670;9.060;2023-06-05T05:30:41;4.57;;;4.17;;
4001;SDS011;2015;48.670;9.060;2023-06-05T05:33:13;5.90;;;4.73;;
4001;SDS011;2015;48.670;9.060;2023-06-05T05:35:45;4.43;;;4.03;;
4001;SDS011;2015;48.670;9.060;2023-06-05T05:38:17;5.27;;;4.77;;
4001;SDS011;2015;48.670;9.060;2023-06-05T05:40:49;4.73;;;4.30;;
4001;SDS011;2015;48.670;9.060;2023-06-05T05:43:23;4.95;;;4.38;;
4001;SDS011;2015;48.670;9.060;2023-06-05T05:45:56;6.00;;;5.43;;
4001;SDS011;2015;48.670;9.060;2023-06-05T05:48:28;5.07;;;4.67;;
4001;SDS011;2015;48.670;9.060;2023-06-05T05:51:00;5.37;;;5.00;;
4001;SDS011;2015;48.670;9.060;2023-06-05T05:53:32;11.13;;;5.67;;
4001;SDS011;2015;48.670;9.060;2023-06-05T05:56:04;6.53;;;6.10;;
4001;SDS011;2015;48.670;9.060;2023-06-05T05:58:36;5.67;;;5.27;;
4001;SDS011;2015;48.670;9.060;2023-06-05T06:01:07;6.73;;;6.00;;
4001;SDS011;2015;48.670;9.060;2023-06-05T06:03:40;5.57;;;5.07;;
4001;SDS011;2015;48.670;9.060;2023-06-05T06:06:12;10.73;;;6.70;;
4001;SDS011;2015;48.670;9.060;2023-06-05T06:08:44;12.23;;;5.30;;
4001;SDS011;2015;48.670;9.060;2023-06-05T06:11:16;5.63;;;4.20;;
4001;SDS011;2015;48.670;9.060;2023-06-05T06:13:48;6.20;;;5.60;;
4001;SDS011;2015;48.670;9.060;2023-06-05T06:16:20;5.23;;;4.83;;
4001;SDS011;2015;48.670;9.060;2023-06-05T06:18:52;5.10;;;4.80;;
4001;SDS011;2015;48.670;9.060;2023-06-05T06:21:24;7.27;;;5.53;;
4001;SDS011;2015;48.670;9.060;2023-06-05T06:23:57;5.80;;;5.40;;
4001;SDS011;2015;48.670;9.060;2023-06-05T06:26:29;6.50;;;5.90;;
4001;SDS011;2015;48.670;9.060;2023-06-05T06:29:02;6.40;;;5.90;;
4001;SDS011;2015;48.670;9.060;2023-06-05T06:31:35;5.28;;;4.78;;
4001;SDS011;2015;48.670;9.060;2023-06-05T06:34:07;6.00;;;5.60;;
4001;SDS011;2015;48.670;9.060;2023-06-05T06:36:41;8.50;;;4.83;;
4001;SDS011;2015;48.670;9.060;2023-06-05T06:39:15;5.20;;;4.80;;
4001;SDS011;2015;48.670;9.060;2023-06-05T06:41:46;5.40;;;4.90;;
4001;SDS011;2015;48.670;9.060;2023-06-05T06:44:18;6.13;;;5.60;;
4001;SDS011;2015;48.670;9.060;2023-06-05T06:46:50;6.70;;;6.03;;
4001;SDS011;2015;48.670;9.060;2023-06-05T06:49:22;5.67;;;5.10;;
4001;SDS011;2015;48.670;9.060;2023-06-05T06:51:54;6.30;;;5.70;;
4001;SDS011;2015;48.670;9.060;2023-06-05T06:54:26;8.47;;;6.33;;
4001;SDS011;2015;48.670;9.060;2023-06-05T06:56:59;6.73;;;5.50;;
4001;SDS011;2015;48.670;9.060;2023-06-05T06:59:32;5.33;;;5.00;;
4001;SDS011;2015;48.670;9.060;2023-06-05T07:02:12;7.15;;;5.45;;
4001;SDS011;2015;48.670;9.060;2023-06-05T07:04:46;6.40;;;5.90;;
4001;SDS011;2015;48.670;9.060;2023-06-05T07:07:19;7.00;;;6.30;;
4001;SDS011;2015;48.670;9.060;2023-06-05T07:09:52;7.30;;;5.17;;
4001;SDS011;2015;48.670;9.060;2023-06-05T07:12:24;5.20;;;4.90;;
4001;SDS011;2015;48.670;9.060;2023-06-05T07:14:56;6.87;;;5.70;;
4001;SDS011;2015;48.670;9.060;2023-06-05T07:17:28;5.30;;;4.57;;
4001;SDS011;2015;48.670;9.060;2023-06-05T07:20:01;6.07;;;5.47;;
4001;SDS011;2015;48.670;9.060;2023-06-05T07:22:35;5.77;;;5.37;;
4001;SDS011;2015;48.670;9.060;2023-06-05T07:25:07;4.90;;;4.60;;
4001;SDS011;2015;48.670;9.060;2023-06-05T07:27:40;8.27;;;5.50;;
4001;SDS011;2015;48.670;9.060;2023-06-05T07:30:12;5.83;;;5.43;;
4001;SDS011;2015;48.670;9.060;2023-06-05T07:32:45;6.13;;;5.60;;
4001;SDS011;2015;48.670;9.060;2023-06-05T07:35:17;5.80;;;4.73;;
4001;SDS011;2015;48.670;9.060;2023-06-05T07:37:49;7.10;;;5.37;;
4001;SDS011;2015;48.670;9.060;2023-06-05T07:40:20;6.10;;;5.60;;
4001;SDS011;2015;48.670;9.060;2023-06-05T07:42:52;6.33;;;5.73;;
4001;SDS011;2015;48.670;9.060;2023-06-05T07:45:24;6.87;;;6.27;;
4001;SDS011;2015;48.670;9.060;2023-06-05T07:47:56;9.57;;;5.77;;
4001;SDS011;2015;48.670;9.060;2023-06-05T07:50:28;6.43;;;5.82;;
4001;SDS011;2015;48.670;9.060;2023-06-05T07:53:01;6.10;;;5.70;;
4001;SDS011;2015;48.670;9.060;2023-06-05T07:55:34;6.63;;;6.23;;
4001;SDS011;2015;48.670;9.060;2023-06-05T07:58:06;7.50;;;6.87;;
4001;SDS011;2015;48.670;9.060;2023-06-05T08:00:38;7.70;;;7.10;;
4001;SDS011;2015;48.670;9.060;2023-06-05T08:03:16;7.90;;;6.80;;
4001;SDS011;2015;48.670;9.060;2023-06-05T08:05:52;8.70;;;7.90;;
4001;SDS011;2015;48.670;9.060;2023-06-05T08:08:24;7.73;;;7.17;;
4001;SDS011;2015;48.670;9.060;2023-06-05T08:10:56;7.37;;;6.60;;
4001;SDS011;2015;48.670;9.060;2023-06-05T08:13:27;7.33;;;6.83;;
4001;SDS011;2015;48.670;9.060;2023-06-05T08:16:00;7.80;;;7.00;;
4001;SDS011;2015;48.670;9.060;2023-06-05T08:18:33;7.40;;;6.73;;
4001;SDS011;2015;48.670;9.060;2023-06-05T08:21:05;10.97;;;6.50;;
4001;SDS011;2015;48.670;9.060;2023-06-05T08:23:38;7.75;;;6.95;;
4001;SDS011;2015;48.670;9.060;2023-06-05T08:26:10;8.00;;;7.30;;
4001;SDS011;2015;48.670;9.060;2023-06-05T08:28:42;9.53;;;8.70;;
4001;SDS011;2015;48.670;9.060;2023-06-05T08:31:14;9.77;;;8.93;;
4001;SDS011;2015;48.670;9.060;2023-06-05T08:33:45;9.17;;;8.57;;
4001;SDS011;2015;48.670;9.060;2023-06-05T08:36:17;9.13;;;8.50;;
4001;SDS011;2015;48.670;9.060;2023-06-05T08:38:49;9.55;;;8.55;;
4001;SDS011;2015;48.670;9.060;2023-06-05T08:41:21;8.55;;;7.95;;
4001;SDS011;2015;48.670;9.060;2023-06-05T08:43:55;10.35;;;9.38;;
4001;SDS011;2015;48.670;9.060;2023-06-05T08:46:28;9.43;;;8.63;;
4001;SDS011;2015;48.670;9.060;2023-06-05T08:49:04;8.13;;;7.45;;
4001;SDS011;2015;48.670;9.060;2023-06-05T08:51:41;8.80;;;8.02;;
4001;SDS011;2015;48.670;9.060;2023-06-05T08:54:15;8.73;;;8.10;;
4001;SDS011;2015;48.670;9.060;2023-06-05T08:56:48;8.45;;;7.93;;
4001;SDS011;2015;48.670;9.060;2023-06-05T08:59:22;9.63;;;8.93;;
4001;SDS011;2015;48.670;9.060;2023-06-05T09:01:56;9.07;;;8.27;;
4001;SDS011;2015;48.670;9.060;2023-06-05T09:04:28;8.70;;;8.20;;
4001;SDS011;2015;48.670;9.060;2023-06-05T09:07:01;8.40;;;7.82;;
4001;SDS011;2015;48.670;9.060;2023-06-05T09:09:34;8.40;;;7.60;;
4001;SDS011;2015;48.670;9.060;2023-06-05T09:12:07;8.77;;;8.13;;
4001;SDS011;2015;48.670;9.060;2023-06-05T09:14:43;8.32;;;7.72;;
4001;SDS011;2015;48.670;9.060;2023-06-05T09:17:14;9.73;;;9.02;;
4001;SDS011;2015;48.670;9.060;2023-06-05T09:19:48;9.65;;;9.05;;
4001;SDS011;2015;48.670;9.060;2023-06-05T09:22:31;9.10;;;8.40;;
4001;SDS011;2015;48.670;9.060;2023-06-05T09:25:05;9.55;;;8.55;;
4001;SDS011;2015;48.670;9.060;2023-06-05T09:27:36;11.05;;;7.40;;
4001;SDS011;2015;48.670;9.060;2023-06-05T09:30:10;8.70;;;8.20;;
4001;SDS011;2015;48.670;9.060;2023-06-05T09:32:42;8.45;;;7.93;;
4001;SDS011;2015;48.670;9.060;2023-06-05T09:35:17;9.65;;;8.80;;
4001;SDS011;2015;48.670;9.060;2023-06-05T09:37:49;8.13;;;7.63;;
4001;SDS011;2015;48.670;9.060;2023-06-05T09:40:36;8.52;;;8.02;;
4001;SDS011;2015;48.670;9.060;2023-06-05T09:43:16;8.40;;;7.80;;
4001;SDS011;2015;48.670;9.060;2023-06-05T09:45:54;8.82;;;8.05;;
4001;SDS011;2015;48.670;9.060;2023-06-05T09:48:25;8.32;;;7.63;;
4001;SDS011;2015;48.670;9.060;2023-06-05T09:51:08;7.78;;;7.05;;
4001;SDS011;2015;48.670;9.060;2023-06-05T09:53:44;8.00;;;7.50;;
4001;SDS011;2015;48.670;9.060;2023-06-05T09:56:18;8.13;;;7.53;;
4001;SDS011;2015;48.670;9.060;2023-06-05T09:58:52;8.23;;;7.78;;
4001;SDS011;2015;48.670;9.060;2023-06-05T10:01:24;9.10;;;8.30;;
4001;SDS011;2015;48.670;9.060;2023-06-05T10:04:00;9.27;;;8.57;;
4001;SDS011;2015;48.670;9.060;2023-06-05T10:06:37;12.00;;;8.65;;
4001;SDS011;2015;48.670;9.060;2023-06-05T10:09:11;19.90;;;8.60;;
4001;SDS011;2015;48.670;9.060;2023-06-05T10:11:43;9.25;;;8.65;;
4001;SDS011;2015;48.670;9.060;2023-06-05T10:14:18;8.85;;;7.95;;
4001;SDS011;2015;48.670;9.060;2023-06-05T10:16:51;9.23;;;8.45;;
4001;SDS011;2015;48.670;9.060;2023-06-05T10:19:24;9.40;;;8.80;;
4001;SDS011;2015;48.670;9.060;2023-06-05T10:21:56;9.02;;;8.32;;
4001;SDS011;2015;48.670;9.060;2023-06-05T10:24:32;8.63;;;7.80;;
4001;SDS011;2015;48.670;9.060;2023-06-05T10:35:39;9.33;;;8.73;;
4001;SDS011;2015;48.670;9.060;2023-06-05T10:38:24;9.23;;;8.60;;
4001;SDS011;2015;48.670;9.060;2023-06-05T10:40:57;9.13;;;8.43;;
4001;SDS011;2015;48.670;9.060;2023-06-05T10:49:08;9.23;;;8.50;;
4001;SDS011;2015;48.670;9.060;2023-06-05T10:51:41;13.50;;;9.80;;
4001;SDS011;2015;48.670;9.060;2023-06-05T10:56:59;9.55;;;8.68;;
4001;SDS011;2015;48.670;9.060;2023-06-05T10:59:37;9.73;;;8.48;;
4001;SDS011;2015;48.670;9.060;2023-06-05T11:07:29;8.32;;;7.72;;
4001;SDS011;2015;48.670;9.060;2023-06-05T11:17:47;8.02;;;7.53;;
4001;SDS011;2015;48.670;9.060;2023-06-05T11:25:32;7.88;;;7.38;;
4001;SDS011;2015;48.670;9.060;2023-06-05T11:28:05;11.23;;;8.35;;
4001;SDS011;2015;48.670;9.060;2023-06-05T11:30:40;8.23;;;7.00;;
4001;SDS011;2015;48.670;9.060;2023-06-05T11:33:19;8.03;;;7.50;;
4001;SDS011;2015;48.670;9.060;2023-06-05T11:35:53;8.52;;;7.82;;
4001;SDS011;2015;48.670;9.060;2023-06-05T11:38:31;8.50;;;7.90;;
4001;SDS011;2015;48.670;9.060;2023-06-05T11:41:07;8.10;;;7.50;;
4001;SDS011;2015;48.670;9.060;2023-06-05T11:43:43;9.10;;;7.73;;
4001;SDS011;2015;48.670;9.060;2023-06-05T11:46:15;7.77;;;7.10;;
4001;SDS011;2015;48.670;9.060;2023-06-05T11:48:47;8.43;;;7.80;;
4001;SDS011;2015;48.670;9.060;2023-06-05T11:51:19;7.40;;;6.93;;
4001;SDS011;2015;48.670;9.060;2023-06-05T11:53:51;8.10;;;7.30;;
4001;SDS011;2015;48.670;9.060;2023-06-05T11:56:24;8.73;;;8.03;;
4001;SDS011;2015;48.670;9.060;2023-06-05T11:58:58;8.33;;;7.40;;
4001;SDS011;2015;48.670;9.060;2023-06-05T12:01:30;8.33;;;7.60;;
4001;SDS011;2015;48.670;9.060;2023-06-05T12:04:04;8.40;;;7.33;;
4001;SDS011;2015;48.670;9.060;2023-06-05T12:06:40;7.97;;;7.30;;
4001;SDS011;2015;48.670;9.060;2023-06-05T12:09:13;7.67;;;6.67;;
4001;SDS011;2015;48.670;9.060;2023-06-05T12:11:47;7.27;;;6.63;;
4001;SDS011;2015;48.670;9.060;2023-06-05T12:14:27;8.37;;;7.67;;
4001;SDS011;2015;48.670;9.060;2023-06-05T12:17:07;7.40;;;6.70;;
4001;SDS011;2015;48.670;9.060;2023-06-05T12:19:41;9.40;;;6.80;;
4001;SDS011;2015;48.670;9.060;2023-06-05T12:22:12;8.60;;;7.43;;
4001;SDS011;2015;48.670;9.060;2023-06-05T12:24:45;7.77;;;7.07;;
4001;SDS011;2015;48.670;9.060;2023-06-05T12:27:17;8.13;;;7.47;;
4001;SDS011;2015;48.670;9.060;2023-06-05T12:30:00;8.40;;;7.80;;
4001;SDS011;2015;48.670;9.060;2023-06-05T12:32:32;7.47;;;6.80;;
4001;SDS011;2015;48.670;9.060;2023-06-05T12:35:04;8.50;;;7.13;;
4001;SDS011;2015;48.670;9.060;2023-06-05T12:37:39;7.37;;;6.87;;
4001;SDS011;2015;48.670;9.060;2023-06-05T12:40:11;7.10;;;6.50;;
4001;SDS011;2015;48.670;9.060;2023-06-05T12:42:59;7.80;;;7.30;;
4001;SDS011;2015;48.670;9.060;2023-06-05T12:45:31;8.60;;;7.80;;
4001;SDS011;2015;48.670;9.060;2023-06-05T12:48:04;10.43;;;7.00;;
4001;SDS011;2015;48.670;9.060;2023-06-05T12:50:37;7.60;;;7.00;;
4001;SDS011;2015;48.670;9.060;2023-06-05T12:53:12;11.77;;;6.10;;
4001;SDS011;2015;48.670;9.060;2023-06-05T12:55:44;8.10;;;7.03;;
4001;SDS011;2015;48.670;9.060;2023-06-05T12:58:16;7.07;;;6.60;;
4001;SDS011;2015;48.670;9.060;2023-06-05T13:00:48;7.37;;;6.63;;
4001;SDS011;2015;48.670;9.060;2023-06-05T13:03:20;7.67;;;7.07;;
4001;SDS011;2015;48.670;9.060;2023-06-05T13:05:52;7.30;;;6.60;;
4001;SDS011;2015;48.670;9.060;2023-06-05T13:08:24;6.97;;;6.40;;
4001;SDS011;2015;48.670;9.060;2023-06-05T13:10:56;7.10;;;6.50;;
4001;SDS011;2015;48.670;9.060;2023-06-05T13:13:28;6.90;;;6.40;;
4001;SDS011;2015;48.670;9.060;2023-06-05T13:16:01;7.20;;;6.63;;
4001;SDS011;2015;48.670;9.060;2023-06-05T13:18:32;7.20;;;6.03;;
4001;SDS011;2015;48.670;9.060;2023-06-05T13:21:04;6.90;;;6.40;;
4001;SDS011;2015;48.670;9.060;2023-06-05T13:23:36;6.63;;;5.97;;
4001;SDS011;2015;48.670;9.060;2023-06-05T13:26:08;7.10;;;6.40;;
4001;SDS011;2015;48.670;9.060;2023-06-05T13:28:41;6.63;;;6.20;;
4001;SDS011;2015;48.670;9.060;2023-06-05T13:31:15;7.03;;;6.50;;
4001;SDS011;2015;48.670;9.060;2023-06-05T13:33:48;6.73;;;6.23;;
4001;SDS011;2015;48.670;9.060;2023-06-05T13:36:20;7.10;;;6.50;;
4001;SDS011;2015;48.670;9.060;2023-06-05T13:38:52;6.80;;;6.30;;
4001;SDS011;2015;48.670;9.060;2023-06-05T13:41:24;7.10;;;6.27;;
4001;SDS011;2015;48.670;9.060;2023-06-05T13:43:56;7.00;;;6.50;;
4001;SDS011;2015;48.670;9.060;2023-06-05T13:46:29;7.60;;;7.00;;
4001;SDS011;2015;48.670;9.060;2023-06-05T13:49:03;7.43;;;6.83;;
4001;SDS011;2015;48.670;9.060;2023-06-05T13:51:35;6.60;;;6.20;;
4001;SDS011;2015;48.670;9.060;2023-06-05T13:54:09;8.10;;;6.60;;
4001;SDS011;2015;48.670;9.060;2023-06-05T13:56:41;7.60;;;7.00;;
4001;SDS011;2015;48.670;9.060;2023-06-05T13:59:13;8.53;;;7.13;;
4001;SDS011;2015;48.670;9.060;2023-06-05T14:01:44;7.30;;;6.50;;
4001;SDS011;2015;48.670;9.060;2023-06-05T14:04:17;7.23;;;6.53;;
4001;SDS011;2015;48.670;9.060;2023-06-05T14:06:49;7.70;;;6.47;;
4001;SDS011;2015;48.670;9.060;2023-06-05T14:09:21;7.20;;;6.53;;
4001;SDS011;2015;48.670;9.060;2023-06-05T14:11:53;7.40;;;6.80;;
4001;SDS011;2015;48.670;9.060;2023-06-05T14:14:25;7.80;;;7.05;;
4001;SDS011;2015;48.670;9.060;2023-06-05T14:16:57;7.27;;;6.67;;
4001;SDS011;2015;48.670;9.060;2023-06-05T14:19:28;7.80;;;7.00;;
4001;SDS011;2015;48.670;9.060;2023-06-05T14:22:00;7.23;;;6.63;;
4001;SDS011;2015;48.670;9.060;2023-06-05T14:24:32;6.77;;;6.37;;
4001;SDS011;2015;48.670;9.060;2023-06-05T14:27:04;6.87;;;6.37;;
4001;SDS011;2015;48.670;9.060;2023-06-05T14:29:36;11.00;;;8.70;;
4001;SDS011;2015;48.670;9.060;2023-06-05T14:32:08;7.67;;;6.90;;
4001;SDS011;2015;48.670;9.060;2023-06-05T14:34:40;9.20;;;8.37;;
4001;SDS011;2015;48.670;9.060;2023-06-05T14:37:11;8.40;;;7.80;;
4001;SDS011;2015;48.670;9.060;2023-06-05T14:39:43;7.40;;;6.77;;
4001;SDS011;2015;48.670;9.060;2023-06-05T14:42:15;10.27;;;7.33;;
4001;SDS011;2015;48.670;9.060;2023-06-05T14:44:47;7.97;;;6.93;;
4001;SDS011;2015;48.670;9.060;2023-06-05T14:47:19;8.23;;;6.93;;
4001;SDS011;2015;48.670;9.060;2023-06-05T14:49:51;8.00;;;7.30;;
4001;SDS011;2015;48.670;9.060;2023-06-05T14:52:23;6.53;;;6.13;;
4001;SDS011;2015;48.670;9.060;2023-06-05T14:54:54;8.50;;;6.90;;
4001;SDS011;2015;48.670;9.060;2023-06-05T14:57:36;7.63;;;7.13;;
4001;SDS011;2015;48.670;9.060;2023-06-05T15:00:08;6.23;;;5.93;;
4001;SDS011;2015;48.670;9.060;2023-06-05T15:02:40;7.80;;;7.10;;
4001;SDS011;2015;48.670;9.060;2023-06-05T15:05:12;6.80;;;6.40;;
4001;SDS011;2015;48.670;9.060;2023-06-05T15:07:45;7.10;;;6.47;;
4001;SDS011;2015;48.670;9.060;2023-06-05T15:10:17;7.13;;;6.63;;
4001;SDS011;2015;48.670;9.060;2023-06-05T15:12:49;8.87;;;7.47;;
4001;SDS011;2015;48.670;9.060;2023-06-05T15:15:28;8.87;;;6.53;;
4001;SDS011;2015;48.670;9.060;2023-06-05T15:18:00;7.10;;;6.60;;
4001;SDS011;2015;48.670;9.060;2023-06-05T15:20:32;7.17;;;5.90;;
4001;SDS011;2015;48.670;9.060;2023-06-05T15:23:04;8.00;;;7.30;;
4001;SDS011;2015;48.670;9.060;2023-06-05T15:25:47;8.63;;;6.73;;
4001;SDS011;2015;48.670;9.060;2023-06-05T15:28:19;7.27;;;6.60;;
4001;SDS011;2015;48.670;9.060;2023-06-05T15:30:50;7.70;;;6.90;;
4001;SDS011;2015;48.670;9.060;2023-06-05T15:33:22;7.87;;;7.10;;
4001;SDS011;2015;48.670;9.060;2023-06-05T15:35:54;6.93;;;6.43;;
4001;SDS011;2015;48.670;9.060;2023-06-05T15:38:26;7.63;;;5.93;;
4001;SDS011;2015;48.670;9.060;2023-06-05T15:40:58;6.83;;;6.33;;
4001;SDS011;2015;48.670;9.060;2023-06-05T15:43:30;6.83;;;6.33;;
4001;SDS011;2015;48.670;9.060;2023-06-05T15:46:02;6.93;;;6.40;;
4001;SDS011;2015;48.670;9.060;2023-06-05T15:48:34;6.43;;;5.93;;
4001;SDS011;2015;48.670;9.060;2023-06-05T15:51:06;5.97;;;5.38;;
4001;SDS011;2015;48.670;9.060;2023-06-05T15:53:38;6.20;;;5.80;;
4001;SDS011;2015;48.670;9.060;2023-06-05T15:56:28;6.57;;;5.97;;
4001;SDS011;2015;48.670;9.060;2023-06-05T15:59:00;8.57;;;7.47;;
4001;SDS011;2015;48.670;9.060;2023-06-05T16:01:31;6.47;;;5.97;;
4001;SDS011;2015;48.670;9.060;2023-06-05T16:04:03;7.03;;;6.53;;
4001;SDS011;2015;48.670;9.060;2023-06-05T16:06:36;6.78;;;6.28;;
4001;SDS011;2015;48.670;9.060;2023-06-05T16:09:08;6.90;;;6.40;;
4001;SDS011;2015;48.670;9.060;2023-06-05T16:11:40;6.40;;;5.80;;
4001;SDS011;2015;48.670;9.060;2023-06-05T16:14:12;7.00;;;6.53;;
4001;SDS011;2015;48.670;9.060;2023-06-05T16:16:44;7.17;;;6.50;;
4001;SDS011;2015;48.670;9.060;2023-06-05T16:19:16;6.47;;;6.07;;
4001;SDS011;2015;48.670;9.060;2023-06-05T16:21:48;6.30;;;5.80;;
4001;SDS011;2015;48.670;9.060;2023-06-05T16:24:19;6.30;;;5.80;;
4001;SDS011;2015;48.670;9.060;2023-06-05T16:26:51;7.10;;;6.50;;